Time;durP1;ratioP1;P1;durP2;ratioP2;P2;SDS_P1;SDS_P2;PMS_P1;PMS_P2;Temp;Humidity;BMP_temperature;BMP_pressure;BME280_temperature;BME280_humidity;BME280_pressure;Samples;Min_cycle;Max_cycle;Signal;HPM_P1;HPM_P2
2022/10/11 00:01:49;;;;;;;;;;;384.00;2329.60;;;;;;5092212;28;19908;-61
2022/10/11 00:04:14;;;;;;;;;;;359.20;2329.60;;;;;;5092387;28;19919;-61
2022/10/11 00:06:42;;;;;;;;;;;359.20;2329.60;;;;;;5091890;28;20010;-62
2022/10/11 00:09:10;;;;;;;;;;;359.20;2329.60;;;;;;5092607;28;19912;-61
2022/10/11 00:11:36;;;;;;;;;;;359.20;2329.60;;;;;;5092275;28;20277;-61
2022/10/11 00:14:01;;;;;;;;;;;359.10;2329.60;;;;;;5091950;28;19931;-62
2022/10/11 00:16:27;;;;;;;;;;;359.10;2329.60;;;;;;5092052;28;19912;-62
2022/10/11 00:18:53;;;;;;;;;;;333.70;2329.60;;;;;;5091713;28;19916;-62
2022/10/11 00:21:19;;;;;;;;;;;359.10;2329.60;;;;;;5091897;28;20007;-62
2022/10/11 00:23:45;;;;;;;;;;;359.10;2329.60;;;;;;5092066;28;20243;-62
2022/10/11 00:26:11;;;;;;;;;;;359.10;2329.60;;;;;;5091708;28;19930;-62
2022/10/11 00:28:36;;;;;;;;;;;359.10;2329.60;;;;;;5091996;28;19915;-61
2022/10/11 00:31:05;;;;;;;;;;;359.00;2329.60;;;;;;5091452;28;19908;-62
2022/10/11 00:33:31;;;;;;;;;;;359.00;2329.60;;;;;;5090979;28;19916;-62
2022/10/11 00:35:58;;;;;;;;;;;359.00;1971.20;;;;;;5091613;28;19912;-62
2022/10/11 00:38:23;;;;;;;;;;;359.00;2329.60;;;;;;5091651;28;19916;-61
2022/10/11 00:40:49;;;;;;;;;;;359.00;2099.20;;;;;;5091448;28;19908;-62
2022/10/11 00:43:25;;;;;;;;;;;359.00;2201.60;;;;;;5091477;28;19908;-61
2022/10/11 00:45:56;;;;;;;;;;;359.00;1996.80;;;;;;5091530;28;19999;-62
2022/10/11 00:48:32;;;;;;;;;;;359.10;2329.60;;;;;;5091259;28;19908;-62
2022/10/11 00:50:59;;;;;;;;;;;359.30;2329.60;;;;;;5091317;28;19916;-62
2022/10/11 00:53:24;;;;;;;;;;;384.00;2329.60;;;;;;5091338;28;19915;-62
2022/10/11 00:55:52;;;;;;;;;;;384.10;2329.60;;;;;;5091184;28;19913;-62
2022/10/11 00:58:17;;;;;;;;;;;384.10;2329.60;;;;;;5091251;28;19976;-62
2022/10/11 01:00:43;;;;;;;;;;;384.00;2329.60;;;;;;5091447;28;19907;-62
2022/10/11 01:03:09;;;;;;;;;;;384.00;2329.60;;;;;;5090856;28;20358;-62
2022/10/11 01:05:37;;;;;;;;;;;359.20;2329.60;;;;;;5091325;28;19912;-62
2022/10/11 01:08:03;;;;;;;;;;;359.20;2329.60;;;;;;5090912;28;19920;-62
2022/10/11 01:10:28;;;;;;;;;;;359.30;2329.60;;;;;;5090892;28;20389;-62
2022/10/11 01:13:00;;;;;;;;;;;384.00;2329.60;;;;;;5091125;28;19908;-62
2022/10/11 01:15:49;;;;;;;;;;;384.10;2329.60;;;;;;5091163;28;20297;-62
2022/10/11 01:18:27;;;;;;;;;;;384.00;2329.60;;;;;;5087702;28;20069;-62
2022/10/11 01:21:11;;;;;;;;;;;384.00;2329.60;;;;;;5090543;28;20374;-62
2022/10/11 01:23:52;;;;;;;;;;;384.00;2329.60;;;;;;5091104;28;19908;-62
2022/10/11 01:26:36;;;;;;;;;;;384.10;2329.60;;;;;;5091113;28;19915;-62
2022/10/11 01:29:07;;;;;;;;;;;384.10;2329.60;;;;;;5090652;28;19908;-62
2022/10/11 01:31:35;;;;;;;;;;;384.20;2329.60;;;;;;5090617;28;19908;-61
2022/10/11 01:34:04;;;;;;;;;;;384.30;2329.60;;;;;;5090393;28;19920;-61
2022/10/11 01:36:43;;;;;;;;;;;384.30;2329.60;;;;;;5090630;28;19916;-61
2022/10/11 01:39:11;;;;;;;;;;;384.30;2329.60;;;;;;5090526;28;19967;-62
2022/10/11 01:41:45;;;;;;;;;;;384.30;2329.60;;;;;;5090919;28;19908;-62
2022/10/11 01:44:11;;;;;;;;;;;384.10;2329.60;;;;;;5090108;28;19931;-62
2022/10/11 01:46:37;;;;;;;;;;;384.30;2329.60;;;;;;5090223;28;19912;-61
2022/10/11 01:49:02;;;;;;;;;;;384.30;2329.60;;;;;;5090340;28;20003;-61
2022/10/11 01:51:51;;;;;;;;;;;384.30;2329.60;;;;;;5090321;28;20011;-61
2022/10/11 01:54:20;;;;;;;;;;;384.30;2329.60;;;;;;5068249;28;20380;-61
2022/10/11 01:56:51;;;;;;;;;;;384.30;2329.60;;;;;;5068364;28;20037;-61
2022/10/11 01:59:20;;;;;;;;;;;384.30;2329.60;;;;;;5068059;28;20059;-61
2022/10/11 02:02:03;;;;;;;;;;;384.10;2329.60;;;;;;5068082;28;20310;-62
2022/10/11 02:04:31;;;;;;;;;;;384.30;2329.60;;;;;;5067801;28;19917;-62
2022/10/11 02:07:09;;;;;;;;;;;384.30;2329.60;;;;;;5067946;28;20041;-62
2022/10/11 02:09:40;;;;;;;;;;;384.40;2329.60;;;;;;5068152;28;19923;-62
2022/10/11 02:12:09;;;;;;;;;;;384.30;2329.60;;;;;;5068164;28;19908;-62
2022/10/11 02:14:37;;;;;;;;;;;384.30;2329.60;;;;;;5068064;28;19909;-62
2022/10/11 02:17:07;;;;;;;;;;;384.30;2329.60;;;;;;5068072;28;19915;-61
2022/10/11 02:19:38;;;;;;;;;;;384.40;2329.60;;;;;;5067726;28;19919;-61
2022/10/11 02:22:10;;;;;;;;;;;384.50;2329.60;;;;;;5067893;28;20400;-61
2022/10/11 02:24:39;;;;;;;;;;;384.50;2329.60;;;;;;5068066;28;19915;-62
2022/10/11 02:27:05;;;;;;;;;;;384.40;2329.60;;;;;;5068038;28;19912;-61
2022/10/11 02:29:32;;;;;;;;;;;384.40;2329.60;;;;;;5067838;28;20340;-62
2022/10/11 02:31:59;;;;;;;;;;;384.40;2329.60;;;;;;5085212;28;20395;-62
2022/10/11 02:34:28;;;;;;;;;;;384.40;2329.60;;;;;;5090072;28;19912;-61
2022/10/11 02:37:02;;;;;;;;;;;384.40;2329.60;;;;;;5090107;28;19918;-61
2022/10/11 02:39:30;;;;;;;;;;;384.50;2329.60;;;;;;5090285;28;20322;-61
2022/10/11 02:41:58;;;;;;;;;;;384.50;2329.60;;;;;;5090179;28;19915;-61
2022/10/11 02:44:36;;;;;;;;;;;384.50;2329.60;;;;;;5090103;28;19998;-62
2022/10/11 02:47:02;;;;;;;;;;;384.50;2329.60;;;;;;5089867;28;20014;-60
2022/10/11 02:49:28;;;;;;;;;;;384.30;2329.60;;;;;;5090075;28;19921;-61
2022/10/11 02:51:54;;;;;;;;;;;384.30;2329.60;;;;;;5089274;28;19919;-61
2022/10/11 02:54:20;;;;;;;;;;;384.30;2329.60;;;;;;5086628;28;19966;-61
2022/10/11 02:56:45;;;;;;;;;;;384.30;2329.60;;;;;;5091286;28;19952;-62
2022/10/11 02:59:11;;;;;;;;;;;384.40;2329.60;;;;;;5092401;28;19935;-62
2022/10/11 03:01:37;;;;;;;;;;;384.40;2329.60;;;;;;5093273;28;19939;-61
2022/10/11 03:04:02;;;;;;;;;;;384.40;2329.60;;;;;;5092868;28;20286;-61
2022/10/11 03:06:28;;;;;;;;;;;384.50;2329.60;;;;;;5092824;28;19920;-61
2022/10/11 03:08:53;;;;;;;;;;;384.60;2329.60;;;;;;5092806;28;19928;-61
2022/10/11 03:11:19;;;;;;;;;;;384.50;2329.60;;;;;;5092877;28;19953;-62
2022/10/11 03:13:44;;;;;;;;;;;384.60;2329.60;;;;;;5092883;28;20422;-61
2022/10/11 03:16:10;;;;;;;;;;;384.60;2329.60;;;;;;5092664;28;19963;-62
2022/10/11 03:18:35;;;;;;;;;;;384.60;2329.60;;;;;;5092738;28;20298;-62
2022/10/11 03:21:01;;;;;;;;;;;384.70;2329.60;;;;;;5092397;28;20000;-62
2022/10/11 03:23:26;;;;;;;;;;;384.60;2329.60;;;;;;5093207;28;20358;-61
2022/10/11 03:25:52;;;;;;;;;;;384.70;2329.60;;;;;;5092877;28;19977;-62
2022/10/11 03:28:18;;;;;;;;;;;384.80;2329.60;;;;;;5093124;28;19935;-61
2022/10/11 03:30:45;;;;;;;;;;;384.80;2329.60;;;;;;5093156;28;19915;-62
2022/10/11 03:33:11;;;;;;;;;;;384.80;2329.60;;;;;;5092640;28;20266;-62
2022/10/11 03:35:36;;;;;;;;;;;384.80;2329.60;;;;;;5092870;28;19912;-62
2022/10/11 03:38:02;;;;;;;;;;;384.70;2329.60;;;;;;5092734;28;19923;-62
2022/10/11 03:40:28;;;;;;;;;;;384.70;2329.60;;;;;;5092758;28;20431;-61
2022/10/11 03:42:55;;;;;;;;;;;384.60;2329.60;;;;;;5092929;28;19908;-62
2022/10/11 03:45:20;;;;;;;;;;;384.70;2329.60;;;;;;5092496;28;19919;-62
2022/10/11 03:47:46;;;;;;;;;;;384.70;2329.60;;;;;;5092729;28;19912;-62
2022/10/11 03:50:11;;;;;;;;;;;384.80;2329.60;;;;;;5092316;28;19916;-62
2022/10/11 03:52:37;;;;;;;;;;;384.80;2329.60;;;;;;5092592;28;19919;-62
2022/10/11 03:55:03;;;;;;;;;;;384.80;2329.60;;;;;;5092435;28;19916;-63
2022/10/11 03:57:29;;;;;;;;;;;384.80;2329.60;;;;;;5092338;28;19920;-63
2022/10/11 03:59:54;;;;;;;;;;;384.80;2329.60;;;;;;5092400;28;20273;-62
2022/10/11 04:02:20;;;;;;;;;;;384.80;2329.60;;;;;;5092153;28;19912;-61
2022/10/11 04:04:46;;;;;;;;;;;384.80;2329.60;;;;;;5092249;28;20380;-62
2022/10/11 04:07:11;;;;;;;;;;;384.80;2329.60;;;;;;5091481;28;20452;-62
2022/10/11 04:09:37;;;;;;;;;;;384.60;2329.60;;;;;;5091688;28;20336;-61
2022/10/11 04:12:02;;;;;;;;;;;384.50;2329.60;;;;;;5092109;28;19915;-62
2022/10/11 04:14:28;;;;;;;;;;;384.40;2329.60;;;;;;5091947;28;20423;-62
2022/10/11 04:16:53;;;;;;;;;;;384.40;2329.60;;;;;;5092104;28;19908;-62
2022/10/11 04:19:19;;;;;;;;;;;384.40;2329.60;;;;;;5091847;28;20376;-62
2022/10/11 04:21:45;;;;;;;;;;;384.30;2329.60;;;;;;5091864;28;20370;-62
2022/10/11 04:24:11;;;;;;;;;;;384.40;2329.60;;;;;;5091688;28;19916;-62
2022/10/11 04:26:36;;;;;;;;;;;384.50;2329.60;;;;;;5092079;28;20320;-62
2022/10/11 04:29:03;;;;;;;;;;;384.60;2329.60;;;;;;5091770;28;19908;-62
2022/10/11 04:31:29;;;;;;;;;;;384.60;2329.60;;;;;;5091777;28;19919;-62
2022/10/11 04:33:55;;;;;;;;;;;384.60;2329.60;;;;;;5091554;28;19912;-62
2022/10/11 04:36:21;;;;;;;;;;;384.70;2329.60;;;;;;5091443;28;19959;-62
2022/10/11 04:38:47;;;;;;;;;;;384.70;2329.60;;;;;;5091461;28;19924;-62
2022/10/11 04:41:13;;;;;;;;;;;384.70;2329.60;;;;;;5091839;28;19908;-62
2022/10/11 04:43:39;;;;;;;;;;;384.60;2329.60;;;;;;5091345;28;20294;-62
2022/10/11 04:46:05;;;;;;;;;;;384.50;2329.60;;;;;;5091688;28;19908;-61
2022/10/11 04:48:30;;;;;;;;;;;384.40;2329.60;;;;;;5091368;28;19918;-62
2022/10/11 04:50:56;;;;;;;;;;;384.30;1971.20;;;;;;5091363;28;19930;-62
2022/10/11 04:53:21;;;;;;;;;;;384.30;2329.60;;;;;;5091370;28;19908;-62
2022/10/11 04:56:04;;;;;;;;;;;384.10;2329.60;;;;;;5091288;28;19955;-62
2022/10/11 04:58:30;;;;;;;;;;;384.10;2304.00;;;;;;5091127;28;19916;-62
2022/10/11 05:00:55;;;;;;;;;;;384.00;2329.60;;;;;;5091363;28;19908;-61
2022/10/11 05:03:21;;;;;;;;;;;384.00;2329.60;;;;;;5090876;28;19912;-62
2022/10/11 05:05:47;;;;;;;;;;;384.00;2329.60;;;;;;5091035;28;19966;-61
2022/10/11 05:08:13;;;;;;;;;;;384.00;2329.60;;;;;;5090833;28;19924;-61
2022/10/11 05:10:38;;;;;;;;;;;384.00;2329.60;;;;;;5091318;28;20019;-62
2022/10/11 05:13:04;;;;;;;;;;;384.20;2278.40;;;;;;5091296;28;20403;-62
2022/10/11 05:15:30;;;;;;;;;;;384.30;2329.60;;;;;;5089664;28;19908;-63
2022/10/11 05:17:55;;;;;;;;;;;384.40;2329.60;;;;;;5091015;28;20019;-62
2022/10/11 05:20:21;;;;;;;;;;;384.50;2329.60;;;;;;5090655;28;20262;-62
2022/10/11 05:22:46;;;;;;;;;;;384.60;2329.60;;;;;;5090720;28;19908;-63
2022/10/11 05:25:12;;;;;;;;;;;384.60;2329.60;;;;;;5091074;28;19908;-62
2022/10/11 05:27:37;;;;;;;;;;;384.60;2329.60;;;;;;5090965;28;19908;-62
2022/10/11 05:30:03;;;;;;;;;;;384.60;2278.40;;;;;;5090676;28;20003;-62
2022/10/11 05:32:29;;;;;;;;;;;384.70;2329.60;;;;;;5090547;28;19912;-62
2022/10/11 05:34:55;;;;;;;;;;;384.70;2329.60;;;;;;5090497;28;20002;-62
2022/10/11 05:37:20;;;;;;;;;;;384.80;2329.60;;;;;;5090361;28;19916;-62
2022/10/11 05:39:46;;;;;;;;;;;384.80;2329.60;;;;;;5090642;28;19919;-62
2022/10/11 05:42:11;;;;;;;;;;;384.80;2329.60;;;;;;5090675;28;19908;-60
2022/10/11 05:44:37;;;;;;;;;;;384.80;2329.60;;;;;;5090744;28;20342;-62
2022/10/11 05:47:03;;;;;;;;;;;384.80;2022.40;;;;;;5090312;28;19908;-61
2022/10/11 05:49:28;;;;;;;;;;;384.80;2329.60;;;;;;5090429;28;20024;-60
2022/10/11 05:51:54;;;;;;;;;;;384.90;2329.60;;;;;;5089154;28;19909;-60
2022/10/11 05:54:19;;;;;;;;;;;409.60;2355.20;;;;;;5090837;28;19915;-59
2022/10/11 05:56:45;;;;;;;;;;;409.70;2355.20;;;;;;5090571;28;19912;-60
2022/10/11 05:59:10;;;;;;;;;;;409.60;2355.20;;;;;;5090441;28;19927;-60
2022/10/11 06:01:36;;;;;;;;;;;384.90;2329.60;;;;;;5090663;28;20262;-61
2022/10/11 06:04:03;;;;;;;;;;;409.60;2355.20;;;;;;5090194;28;19912;-59
2022/10/11 06:06:28;;;;;;;;;;;409.70;2355.20;;;;;;5090051;28;19922;-60
2022/10/11 06:08:54;;;;;;;;;;;384.90;2329.60;;;;;;5090192;28;20010;-59
2022/10/11 06:11:21;;;;;;;;;;;384.90;2329.60;;;;;;5090363;28;19912;-60
2022/10/11 06:13:47;;;;;;;;;;;384.80;2329.60;;;;;;5090506;28;20354;-60
2022/10/11 06:16:13;;;;;;;;;;;384.90;2329.60;;;;;;5090302;28;19908;-61
2022/10/11 06:18:38;;;;;;;;;;;384.90;2329.60;;;;;;5089895;28;20002;-60
2022/10/11 06:21:04;;;;;;;;;;;384.90;2329.60;;;;;;5090304;28;19915;-60
2022/10/11 06:23:29;;;;;;;;;;;409.60;2355.20;;;;;;5089950;28;19953;-60
2022/10/11 06:25:56;;;;;;;;;;;409.70;2355.20;;;;;;5090309;28;19944;-59
2022/10/11 06:28:22;;;;;;;;;;;384.90;2329.60;;;;;;5090253;28;20305;-59
2022/10/11 06:30:47;;;;;;;;;;;409.70;2355.20;;;;;;5090609;28;19908;-60
2022/10/11 06:33:13;;;;;;;;;;;409.90;2355.20;;;;;;5093941;28;20278;-59
2022/10/11 06:35:38;;;;;;;;;;;410.00;2355.20;;;;;;5093890;28;19998;-60
2022/10/11 06:38:04;;;;;;;;;;;410.20;2355.20;;;;;;5093914;28;19923;-60
2022/10/11 06:40:29;;;;;;;;;;;410.30;2355.20;;;;;;5093690;28;20366;-59
2022/10/11 06:42:55;;;;;;;;;;;410.50;2355.20;;;;;;5094159;28;20262;-60
2022/10/11 06:45:20;;;;;;;;;;;435.30;2355.20;;;;;;5093653;28;19966;-59
2022/10/11 06:47:46;;;;;;;;;;;435.30;2355.20;;;;;;5093811;28;19912;-60
2022/10/11 06:50:12;;;;;;;;;;;435.40;2355.20;;;;;;5093539;28;19970;-60
2022/10/11 06:52:38;;;;;;;;;;;435.50;2355.20;;;;;;5093689;28;19915;-59
2022/10/11 06:55:03;;;;;;;;;;;435.30;2355.20;;;;;;5093691;28;19908;-60
2022/10/11 06:57:29;;;;;;;;;;;435.40;2355.20;;;;;;5093658;28;19908;-60
2022/10/11 06:59:54;;;;;;;;;;;435.60;2355.20;;;;;;5093817;28;20358;-59
2022/10/11 07:02:20;;;;;;;;;;;435.60;2355.20;;;;;;5093544;28;19912;-60
2022/10/11 07:04:46;;;;;;;;;;;435.80;2355.20;;;;;;5093504;28;19912;-61
2022/10/11 07:07:12;;;;;;;;;;;435.90;2355.20;;;;;;5092825;28;19928;-60
2022/10/11 07:09:38;;;;;;;;;;;436.00;2355.20;;;;;;5093303;28;19908;-60
2022/10/11 07:12:03;;;;;;;;;;;436.10;2355.20;;;;;;5093301;28;20067;-60
2022/10/11 07:14:29;;;;;;;;;;;460.80;2380.80;;;;;;5093025;28;19912;-60
2022/10/11 07:16:54;;;;;;;;;;;436.10;2355.20;;;;;;5093374;28;19912;-59
2022/10/11 07:19:20;;;;;;;;;;;460.90;2380.80;;;;;;5093076;28;20125;-59
2022/10/11 07:21:45;;;;;;;;;;;460.90;2380.80;;;;;;5093066;28;20320;-60
2022/10/11 07:24:11;;;;;;;;;;;461.00;2380.80;;;;;;5093022;28;19939;-60
2022/10/11 07:26:37;;;;;;;;;;;461.00;2380.80;;;;;;5093074;28;20358;-59
2022/10/11 07:29:02;;;;;;;;;;;461.10;2380.80;;;;;;5093065;28;19908;-60
2022/10/11 07:31:28;;;;;;;;;;;461.20;2380.80;;;;;;5093033;28;19957;-60
2022/10/11 07:33:54;;;;;;;;;;;461.20;2380.80;;;;;;5092854;28;19935;-59
2022/10/11 07:36:21;;;;;;;;;;;461.00;2380.80;;;;;;5092729;28;20290;-60
2022/10/11 07:38:48;;;;;;;;;;;460.90;2380.80;;;;;;5092891;28;19966;-59
2022/10/11 07:41:14;;;;;;;;;;;460.80;2380.80;;;;;;5092854;28;19908;-59
2022/10/11 07:43:42;;;;;;;;;;;460.80;2380.80;;;;;;5091386;28;20370;-60
2022/10/11 07:46:08;;;;;;;;;;;436.10;2355.20;;;;;;5092815;28;19912;-60
2022/10/11 07:48:34;;;;;;;;;;;436.10;2355.20;;;;;;5092783;28;20005;-59
2022/10/11 07:51:02;;;;;;;;;;;436.10;2355.20;;;;;;5092345;28;19912;-59
2022/10/11 07:53:28;;;;;;;;;;;460.80;2380.80;;;;;;5092661;28;19916;-59
2022/10/11 07:55:54;;;;;;;;;;;460.80;2380.80;;;;;;5092385;28;19909;-59
2022/10/11 07:58:19;;;;;;;;;;;460.80;2380.80;;;;;;5092162;28;19920;-60
2022/10/11 08:00:45;;;;;;;;;;;460.90;2380.80;;;;;;5092402;28;19915;-60
2022/10/11 08:03:10;;;;;;;;;;;460.80;2380.80;;;;;;5092184;28;19952;-59
2022/10/11 08:05:38;;;;;;;;;;;461.00;2380.80;;;;;;5092445;28;20358;-59
2022/10/11 08:08:03;;;;;;;;;;;461.10;2380.80;;;;;;5091950;28;19928;-59
2022/10/11 08:10:29;;;;;;;;;;;461.20;2380.80;;;;;;5091829;28;19912;-60
2022/10/11 08:12:54;;;;;;;;;;;461.20;2380.80;;;;;;5092159;28;19908;-60
2022/10/11 08:15:20;;;;;;;;;;;461.20;2380.80;;;;;;5091991;28;19961;-59
2022/10/11 08:17:46;;;;;;;;;;;461.50;2380.80;;;;;;5092231;28;19923;-60
2022/10/11 08:20:11;;;;;;;;;;;461.50;2380.80;;;;;;5091877;28;19908;-59
2022/10/11 08:22:38;;;;;;;;;;;461.70;2380.80;;;;;;5092145;28;20400;-60
2022/10/11 08:25:03;;;;;;;;;;;461.60;2380.80;;;;;;5092084;28;19984;-59
2022/10/11 08:27:29;;;;;;;;;;;461.70;2380.80;;;;;;5091641;28;20304;-59
2022/10/11 08:29:54;;;;;;;;;;;461.70;2380.80;;;;;;5092035;28;19908;-59
2022/10/11 08:32:20;;;;;;;;;;;461.70;2380.80;;;;;;5091835;28;19935;-60
2022/10/11 08:34:46;;;;;;;;;;;461.70;2380.80;;;;;;5091610;28;19919;-59
2022/10/11 08:37:11;;;;;;;;;;;486.40;2380.80;;;;;;5091662;28;19912;-58
2022/10/11 08:39:37;;;;;;;;;;;461.70;2380.80;;;;;;5091862;28;19969;-59
2022/10/11 08:42:05;;;;;;;;;;;461.70;2380.80;;;;;;5091476;28;19915;-58
2022/10/11 08:44:37;;;;;;;;;;;461.70;2380.80;;;;;;5091399;28;19912;-59
2022/10/11 08:47:19;;;;;;;;;;;461.70;2380.80;;;;;;5091192;28;19955;-58
2022/10/11 08:49:44;;;;;;;;;;;461.60;2380.80;;;;;;5091674;28;19908;-59
2022/10/11 08:52:12;;;;;;;;;;;461.60;2380.80;;;;;;5091276;28;19923;-59
2022/10/11 08:54:38;;;;;;;;;;;461.60;2380.80;;;;;;5091074;28;19908;-58
2022/10/11 08:57:04;;;;;;;;;;;461.50;2380.80;;;;;;5091093;28;19915;-56
2022/10/11 08:59:34;;;;;;;;;;;461.40;2380.80;;;;;;5088345;28;20290;-59
2022/10/11 09:02:20;;;;;;;;;;;461.50;2380.80;;;;;;5089750;28;19989;-58
2022/10/11 09:04:50;;;;;;;;;;;461.50;2380.80;;;;;;5089345;28;19916;-57
2022/10/11 09:07:34;;;;;;;;;;;461.30;2380.80;;;;;;5089471;28;19924;-57
2022/10/11 09:09:59;;;;;;;;;;;461.40;2380.80;;;;;;5089674;28;19916;-57
2022/10/11 09:12:41;;;;;;;;;;;461.50;2380.80;;;;;;5089151;28;19908;-58
2022/10/11 09:15:19;;;;;;;;;;;461.60;2380.80;;;;;;5089533;28;19957;-57
2022/10/11 09:17:50;;;;;;;;;;;486.40;2380.80;;;;;;5089356;28;20290;-57
2022/10/11 09:20:34;;;;;;;;;;;486.50;2380.80;;;;;;5089444;28;20374;-58
2022/10/11 09:23:00;;;;;;;;;;;486.40;2380.80;;;;;;5089321;28;19962;-59
2022/10/11 09:25:32;;;;;;;;;;;486.40;2380.80;;;;;;5088987;28;20004;-59
2022/10/11 09:27:57;;;;;;;;;;;486.40;2380.80;;;;;;5089419;28;19916;-59
2022/10/11 09:30:23;;;;;;;;;;;461.70;2380.80;;;;;;5089055;28;20362;-59
2022/10/11 09:32:58;;;;;;;;;;;461.60;2380.80;;;;;;5088555;28;19912;-59
2022/10/11 09:35:23;;;;;;;;;;;461.50;2380.80;;;;;;5086194;28;19912;-59
2022/10/11 09:37:55;;;;;;;;;;;461.50;2380.80;;;;;;5087131;28;20414;-59
2022/10/11 09:40:39;;;;;;;;;;;461.40;2380.80;;;;;;5085466;28;19908;-59
2022/10/11 09:43:04;;;;;;;;;;;461.50;2380.80;;;;;;5085817;28;19908;-60
2022/10/11 09:45:30;;;;;;;;;;;461.50;2380.80;;;;;;5087967;28;20370;-59
2022/10/11 09:47:58;;;;;;;;;;;461.50;2380.80;;;;;;5087000;28;19912;-58
2022/10/11 09:50:25;;;;;;;;;;;461.50;2380.80;;;;;;5086289;28;19912;-59
2022/10/11 09:52:51;;;;;;;;;;;461.40;2380.80;;;;;;5086391;28;19916;-59
2022/10/11 09:55:29;;;;;;;;;;;461.30;2380.80;;;;;;5086572;28;19958;-60
2022/10/11 09:57:54;;;;;;;;;;;461.30;2380.80;;;;;;5085686;28;19916;-60
2022/10/11 10:00:21;;;;;;;;;;;461.30;2380.80;;;;;;5086249;28;20251;-58
2022/10/11 10:02:50;;;;;;;;;;;461.10;2380.80;;;;;;5086152;28;19912;-57
2022/10/11 10:05:16;;;;;;;;;;;461.10;2380.80;;;;;;5086259;28;19962;-60
2022/10/11 10:07:57;;;;;;;;;;;461.10;2380.80;;;;;;5089136;28;20024;-59
2022/10/11 10:10:27;;;;;;;;;;;461.20;2380.80;;;;;;5090145;28;20003;-58
2022/10/11 10:12:54;;;;;;;;;;;461.30;2380.80;;;;;;5089642;28;19908;-59
2022/10/11 10:15:20;;;;;;;;;;;461.30;2380.80;;;;;;5088488;28;19908;-60
2022/10/11 10:17:49;;;;;;;;;;;461.40;2380.80;;;;;;5089889;28;19920;-57
2022/10/11 10:20:18;;;;;;;;;;;461.50;2380.80;;;;;;5089869;28;19908;-59
2022/10/11 10:22:45;;;;;;;;;;;461.50;2380.80;;;;;;5090237;28;19912;-58
2022/10/11 10:25:18;;;;;;;;;;;461.60;2380.80;;;;;;5089965;28;20327;-59
2022/10/11 10:27:54;;;;;;;;;;;461.60;2380.80;;;;;;5088844;28;20358;-58
2022/10/11 10:30:20;;;;;;;;;;;461.50;2380.80;;;;;;5090069;28;19912;-60
2022/10/11 10:32:54;;;;;;;;;;;461.60;2380.80;;;;;;5092476;28;19969;-59
2022/10/11 10:35:28;;;;;;;;;;;461.50;2380.80;;;;;;5090155;28;20281;-60
2022/10/11 10:38:12;;;;;;;;;;;461.50;2380.80;;;;;;5092349;28;19976;-58
2022/10/11 10:40:38;;;;;;;;;;;461.30;2380.80;;;;;;5092470;28;19909;-60
2022/10/11 10:43:04;;;;;;;;;;;461.40;2380.80;;;;;;5092488;28;19998;-59
2022/10/11 10:45:49;;;;;;;;;;;461.30;2380.80;;;;;;5092568;28;19909;-59
2022/10/11 10:48:44;;;;;;;;;;;461.30;2380.80;;;;;;5091462;28;19931;-60
2022/10/11 10:51:16;;;;;;;;;;;461.30;2380.80;;;;;;5037867;28;19909;-60
2022/10/11 10:53:47;;;;;;;;;;;461.20;2380.80;;;;;;5041372;28;19986;-59
2022/10/11 10:56:17;;;;;;;;;;;461.40;2380.80;;;;;;5041480;28;20003;-60
2022/10/11 10:59:01;;;;;;;;;;;461.30;2380.80;;;;;;5035361;28;20003;-59
2022/10/11 11:01:36;;;;;;;;;;;461.30;2380.80;;;;;;5041475;28;20357;-59
2022/10/11 11:04:01;;;;;;;;;;;461.20;2380.80;;;;;;5038393;28;19960;-59
2022/10/11 11:06:35;;;;;;;;;;;461.20;2380.80;;;;;;5032909;28;19953;-60
2022/10/11 11:09:15;;;;;;;;;;;461.10;2380.80;;;;;;5019652;28;19929;-60
2022/10/11 11:11:52;;;;;;;;;;;461.20;2380.80;;;;;;5034549;28;19913;-60
2022/10/11 11:14:30;;;;;;;;;;;461.20;2380.80;;;;;;5032912;28;19909;-59
2022/10/11 11:17:08;;;;;;;;;;;461.10;2380.80;;;;;;5032435;28;19917;-60
2022/10/11 11:19:42;;;;;;;;;;;461.20;2380.80;;;;;;5032529;28;19923;-58
2022/10/11 11:22:14;;;;;;;;;;;461.20;2380.80;;;;;;5037532;28;20063;-59
2022/10/11 11:24:51;;;;;;;;;;;461.30;2380.80;;;;;;5031043;28;19909;-59
2022/10/11 11:27:29;;;;;;;;;;;461.30;2380.80;;;;;;5055931;28;19919;-59
2022/10/11 11:29:59;;;;;;;;;;;461.30;2380.80;;;;;;5072563;28;19938;-59
2022/10/11 11:32:47;;;;;;;;;;;461.30;2380.80;;;;;;5072799;28;19909;-60
2022/10/11 11:35:22;;;;;;;;;;;461.20;2380.80;;;;;;5050392;28;19924;-59
2022/10/11 11:37:49;;;;;;;;;;;461.50;2380.80;;;;;;5050272;28;19920;-60
2022/10/11 11:40:16;;;;;;;;;;;461.50;2380.80;;;;;;5050418;28;19909;-59
2022/10/11 11:42:42;;;;;;;;;;;461.50;2380.80;;;;;;5050092;28;20390;-60
2022/10/11 11:45:14;;;;;;;;;;;461.50;2380.80;;;;;;5050534;28;19957;-60
2022/10/11 11:47:40;;;;;;;;;;;461.50;2380.80;;;;;;5049965;28;20007;-60
2022/10/11 11:50:21;;;;;;;;;;;461.40;2380.80;;;;;;5050392;28;19912;-59
2022/10/11 11:53:07;;;;;;;;;;;461.50;2380.80;;;;;;5050088;28;20266;-59
2022/10/11 11:55:42;;;;;;;;;;;461.70;2380.80;;;;;;5049957;28;19909;-59
2022/10/11 11:58:26;;;;;;;;;;;461.70;2380.80;;;;;;5050189;28;19979;-59
2022/10/11 12:01:03;;;;;;;;;;;461.70;2380.80;;;;;;5049964;28;19952;-60
2022/10/11 12:03:38;;;;;;;;;;;486.40;2380.80;;;;;;5049747;28;20461;-59
2022/10/11 12:06:16;;;;;;;;;;;486.50;2380.80;;;;;;5049748;28;19946;-59
2022/10/11 12:08:54;;;;;;;;;;;486.60;2380.80;;;;;;5031648;28;19948;-58
2022/10/11 12:11:24;;;;;;;;;;;486.50;2380.80;;;;;;5029968;28;19910;-60
2022/10/11 12:13:50;;;;;;;;;;;486.40;2380.80;;;;;;5031852;28;20283;-60
2022/10/11 12:16:16;;;;;;;;;;;486.40;2380.80;;;;;;5031955;28;19916;-60
2022/10/11 12:18:57;;;;;;;;;;;461.70;2380.80;;;;;;5031634;28;19979;-60
2022/10/11 12:21:36;;;;;;;;;;;486.40;2380.80;;;;;;5031728;28;20485;-61
2022/10/11 12:24:09;;;;;;;;;;;461.60;2380.80;;;;;;5031463;28;20044;-61
2022/10/11 12:26:38;;;;;;;;;;;461.60;2380.80;;;;;;5031882;28;19909;-60
2022/10/11 12:29:23;;;;;;;;;;;461.60;2380.80;;;;;;5031125;28;19910;-60
2022/10/11 12:31:50;;;;;;;;;;;461.60;2380.80;;;;;;5030745;28;20352;-60
2022/10/11 12:34:17;;;;;;;;;;;461.50;2380.80;;;;;;5031686;28;19919;-61
2022/10/11 12:36:45;;;;;;;;;;;461.50;2380.80;;;;;;5031393;28;20279;-59
2022/10/11 12:39:17;;;;;;;;;;;461.50;2380.80;;;;;;5031407;28;19917;-59
2022/10/11 12:41:52;;;;;;;;;;;461.50;2380.80;;;;;;5031238;28;20423;-59
2022/10/11 12:44:17;;;;;;;;;;;461.40;2380.80;;;;;;5031461;28;20310;-60
2022/10/11 12:46:49;;;;;;;;;;;461.50;2380.80;;;;;;5031260;28;19917;-60
2022/10/11 12:49:35;;;;;;;;;;;461.50;2380.80;;;;;;5031331;28;19909;-60
2022/10/11 12:52:02;;;;;;;;;;;461.40;2380.80;;;;;;5030999;28;19909;-60
2022/10/11 12:54:27;;;;;;;;;;;461.40;2380.80;;;;;;5031324;28;19917;-59
2022/10/11 12:57:08;;;;;;;;;;;461.30;2380.80;;;;;;5030988;28;19909;-60
2022/10/11 12:59:36;;;;;;;;;;;461.30;2380.80;;;;;;5031191;28;19917;-59
2022/10/11 13:02:02;;;;;;;;;;;461.40;2380.80;;;;;;5030899;28;19909;-60
2022/10/11 13:04:30;;;;;;;;;;;461.40;2380.80;;;;;;5031006;28;20964;-60
2022/10/11 13:07:02;;;;;;;;;;;461.50;2380.80;;;;;;5037368;28;20290;-60
2022/10/11 13:09:33;;;;;;;;;;;461.30;2380.80;;;;;;5071152;28;19916;-59
2022/10/11 13:12:05;;;;;;;;;;;461.30;2380.80;;;;;;5070783;28;19913;-60
2022/10/11 13:14:35;;;;;;;;;;;461.40;2380.80;;;;;;5070731;28;19913;-60
2022/10/11 13:17:06;;;;;;;;;;;461.40;2380.80;;;;;;5070657;28;19936;-60
2022/10/11 13:19:34;;;;;;;;;;;461.50;2380.80;;;;;;5070428;28;19927;-59
2022/10/11 13:22:01;;;;;;;;;;;461.40;2380.80;;;;;;5070391;28;20370;-59
2022/10/11 13:24:33;;;;;;;;;;;461.50;2380.80;;;;;;5070825;28;19908;-60
2022/10/11 13:26:59;;;;;;;;;;;461.50;2380.80;;;;;;5070420;28;20457;-60
2022/10/11 13:29:32;;;;;;;;;;;461.50;2380.80;;;;;;5070749;28;19952;-60
2022/10/11 13:32:04;;;;;;;;;;;461.60;2380.80;;;;;;5070557;28;19912;-59
2022/10/11 13:34:33;;;;;;;;;;;461.60;2380.80;;;;;;5073610;28;20384;-59
2022/10/11 13:36:59;;;;;;;;;;;461.70;2380.80;;;;;;5089836;28;20320;-60
2022/10/11 13:39:28;;;;;;;;;;;486.40;2380.80;;;;;;5090643;28;19939;-60
2022/10/11 13:41:54;;;;;;;;;;;461.60;2380.80;;;;;;5090474;28;20484;-61
2022/10/11 13:44:20;;;;;;;;;;;486.40;2380.80;;;;;;5090364;28;19916;-59
2022/10/11 13:46:45;;;;;;;;;;;486.40;2380.80;;;;;;5088662;28;19912;-60
2022/10/11 13:49:23;;;;;;;;;;;486.40;2380.80;;;;;;5088886;28;19995;-60
2022/10/11 13:51:59;;;;;;;;;;;486.40;2380.80;;;;;;5088919;28;20287;-61